createdAt,value
2016-08-04T00:00:04.191Z,0
2016-08-04T00:01:04.237Z,0
2016-08-04T00:02:04.996Z,0
2016-08-04T00:03:04.308Z,0
2016-08-04T00:04:04.359Z,0
2016-08-04T00:05:05.123Z,0
2016-08-04T00:06:05.177Z,0
2016-08-04T00:07:04.576Z,0
2016-08-04T00:08:05.257Z,0
2016-08-04T00:09:04.635Z,0
2016-08-04T00:10:05.365Z,0
2016-08-04T00:11:04.030Z,0
2016-08-04T00:12:05.479Z,0
2016-08-04T00:13:04.834Z,0
2016-08-04T00:14:04.838Z,0
2016-08-04T00:15:05.666Z,0
2016-08-04T00:16:04.277Z,0
2016-08-04T00:17:05.741Z,0
2016-08-04T00:18:05.761Z,0
2016-08-04T00:19:03.723Z,0
2016-08-04T00:20:05.172Z,0
2016-08-04T00:21:05.928Z,0
2016-08-04T00:22:05.278Z,0
2016-08-04T00:23:05.325Z,0
2016-08-04T00:24:05.361Z,0
2016-08-04T00:25:06.145Z,0
2016-08-04T00:26:06.175Z,0
2016-08-04T00:27:06.193Z,0
2016-08-04T00:28:06.221Z,0
2016-08-04T00:29:05.597Z,0
2016-08-04T00:30:05.681Z,0
2016-08-04T00:31:05.706Z,0
2016-08-04T00:32:05.731Z,0
2016-08-04T00:33:06.518Z,0
2016-08-04T00:34:06.565Z,0
2016-08-04T00:35:06.620Z,0
2016-08-04T00:36:05.961Z,0
2016-08-04T00:37:06.736Z,0
2016-08-04T00:38:06.069Z,0
2016-08-04T00:39:06.095Z,0
2016-08-04T00:40:06.131Z,0
2016-08-04T00:41:06.200Z,0
2016-08-04T00:42:06.934Z,0
2016-08-04T00:43:07.006Z,0
2016-08-04T00:44:07.058Z,0
2016-08-04T00:45:06.373Z,0
2016-08-04T00:46:20.653Z,0
2016-08-04T00:47:07.207Z,0
2016-08-04T00:48:06.515Z,0
2016-08-04T00:49:05.898Z,0
2016-08-04T00:50:05.940Z,0
2016-08-04T00:51:07.383Z,0
2016-08-04T00:52:06.751Z,0
2016-08-04T00:53:06.793Z,0
2016-08-04T00:54:06.823Z,0
2016-08-04T00:55:06.183Z,0
2016-08-04T00:56:07.608Z,0
2016-08-04T00:57:06.263Z,0
2016-08-04T00:58:07.762Z,0
2016-08-04T00:59:07.800Z,0
2016-08-04T01:00:07.816Z,0
2016-08-04T01:01:07.871Z,0
2016-08-04T01:02:07.226Z,0
2016-08-04T01:03:06.541Z,0
2016-08-04T01:04:07.302Z,0
2016-08-04T01:05:07.398Z,0
2016-08-04T01:06:07.405Z,0
2016-08-04T01:07:07.458Z,0
2016-08-04T01:08:08.247Z,0
2016-08-04T01:09:07.581Z,0
2016-08-04T01:10:07.600Z,0
2016-08-04T01:11:08.350Z,0
2016-08-04T01:12:07.726Z,0
2016-08-04T01:13:07.040Z,0
2016-08-04T01:14:06.400Z,0
2016-08-04T01:15:07.911Z,0
2016-08-04T01:16:07.901Z,0
2016-08-04T01:17:07.937Z,0
2016-08-04T01:18:08.663Z,0
2016-08-04T01:19:07.345Z,0
2016-08-04T01:20:08.813Z,0
2016-08-04T01:21:08.159Z,0
2016-08-04T01:22:08.917Z,0
2016-08-04T01:23:08.918Z,0
2016-08-04T01:24:08.325Z,0
2016-08-04T01:25:09.061Z,0
2016-08-04T01:26:07.704Z,0
2016-08-04T01:27:08.466Z,0
2016-08-04T01:28:09.197Z,0
2016-08-04T01:29:09.210Z,0
2016-08-04T01:30:09.266Z,0
2016-08-04T01:31:09.368Z,0
2016-08-04T01:32:09.362Z,0
2016-08-04T01:33:09.408Z,0
2016-08-04T01:34:08.793Z,0
2016-08-04T01:35:09.528Z,0
2016-08-04T01:36:08.150Z,0
2016-08-04T01:37:08.920Z,0
2016-08-04T01:38:09.676Z,0
2016-08-04T01:39:09.725Z,0
2016-08-04T01:40:09.151Z,0
2016-08-04T01:41:09.108Z,0
2016-08-04T01:42:09.852Z,0
2016-08-04T01:43:09.871Z,0
2016-08-04T01:44:09.946Z,0
2016-08-04T01:45:08.659Z,0
2016-08-04T01:46:08.661Z,0
2016-08-04T01:47:09.390Z,0
2016-08-04T01:48:09.434Z,0
2016-08-04T01:49:10.192Z,0
2016-08-04T01:50:09.214Z,0
2016-08-04T01:51:09.604Z,0
2016-08-04T01:52:08.921Z,0
2016-08-04T01:53:09.693Z,0
2016-08-04T01:54:10.436Z,0
2016-08-04T01:55:10.484Z,0
2016-08-04T01:56:09.875Z,0
2016-08-04T01:57:10.570Z,0
2016-08-04T01:58:09.942Z,0
2016-08-04T01:59:10.182Z,0
2016-08-04T02:00:10.730Z,0
2016-08-04T02:01:10.796Z,0
2016-08-04T02:02:10.148Z,0
2016-08-04T02:03:10.910Z,0
2016-08-04T02:04:10.893Z,0
2016-08-04T02:05:09.155Z,0
2016-08-04T02:06:10.322Z,0
2016-08-04T02:07:11.085Z,0
2016-08-04T02:08:11.146Z,0
2016-08-04T02:09:11.155Z,0
2016-08-04T02:10:10.523Z,0
2016-08-04T02:11:10.610Z,0
2016-08-04T02:12:11.324Z,0
2016-08-04T02:13:10.682Z,0
2016-08-04T02:14:11.420Z,0
2016-08-04T02:15:11.544Z,0
2016-08-04T02:16:10.806Z,0
2016-08-04T02:17:11.579Z,0
2016-08-04T02:18:10.886Z,0
2016-08-04T02:19:11.199Z,0
2016-08-04T02:20:11.021Z,0
2016-08-04T02:21:11.788Z,0
2016-08-04T02:22:11.804Z,0
2016-08-04T02:23:11.881Z,0
2016-08-04T02:24:09.798Z,0
2016-08-04T02:25:10.626Z,0
2016-08-04T02:26:11.335Z,0
2016-08-04T02:27:11.357Z,0
2016-08-04T02:28:10.707Z,0
2016-08-04T02:29:12.102Z,0
2016-08-04T02:30:12.444Z,0
2016-08-04T02:31:12.213Z,0
2016-08-04T02:32:12.296Z,0
2016-08-04T02:33:12.343Z,0
2016-08-04T02:34:11.681Z,0
2016-08-04T02:35:12.615Z,0
2016-08-04T02:36:12.479Z,0
2016-08-04T02:37:11.097Z,0
2016-08-04T02:38:12.575Z,0
2016-08-04T02:39:12.604Z,0
2016-08-04T02:40:12.013Z,0
2016-08-04T02:41:12.714Z,0
2016-08-04T02:42:12.786Z,0
2016-08-04T02:43:11.430Z,0
2016-08-04T02:44:12.843Z,0
2016-08-04T02:45:13.035Z,0
2016-08-04T02:46:12.559Z,0
2016-08-04T02:47:13.012Z,0
2016-08-04T02:48:12.371Z,0
2016-08-04T02:49:12.412Z,0
2016-08-04T02:50:13.195Z,0
2016-08-04T02:51:12.514Z,0
2016-08-04T02:52:11.870Z,0
2016-08-04T02:53:12.630Z,0
2016-08-04T02:54:13.349Z,0
2016-08-04T02:55:13.482Z,0
2016-08-04T02:56:13.454Z,0
2016-08-04T02:57:13.518Z,0
2016-08-04T02:58:13.523Z,0
2016-08-04T02:59:13.612Z,0
2016-08-04T03:00:12.234Z,0
2016-08-04T03:01:12.976Z,0
2016-08-04T03:02:12.338Z,0
2016-08-04T03:03:13.818Z,0
2016-08-04T03:04:13.845Z,0
2016-08-04T03:05:13.935Z,0
2016-08-04T03:06:13.935Z,0
2016-08-04T03:07:14.009Z,0
2016-08-04T03:08:13.334Z,0
2016-08-04T03:09:14.083Z,0
2016-08-04T03:10:14.143Z,0
2016-08-04T03:11:13.486Z,0
2016-08-04T03:12:13.553Z,0
2016-08-04T03:13:14.314Z,0
2016-08-04T03:14:13.598Z,0
2016-08-04T03:15:12.985Z,0
2016-08-04T03:16:13.730Z,0
2016-08-04T03:17:13.771Z,0
2016-08-04T03:18:14.519Z,0
2016-08-04T03:19:13.857Z,0
2016-08-04T03:20:14.658Z,4
2016-08-04T03:21:13.985Z,4
2016-08-04T03:22:14.709Z,4
2016-08-04T03:23:14.779Z,0
2016-08-04T03:24:14.838Z,4
2016-08-04T03:25:14.907Z,4
2016-08-04T03:26:14.975Z,4
2016-08-04T03:27:13.568Z,8
2016-08-04T03:28:14.282Z,8
2016-08-04T03:29:15.058Z,8
2016-08-04T03:30:15.140Z,12
2016-08-04T03:31:15.164Z,12
2016-08-04T03:32:13.800Z,16
2016-08-04T03:33:13.837Z,16
2016-08-04T03:34:15.328Z,20
2016-08-04T03:35:14.621Z,28
2016-08-04T03:36:14.732Z,32
2016-08-04T03:37:14.742Z,36
2016-08-04T03:38:14.800Z,44
2016-08-04T03:39:15.551Z,52
2016-08-04T03:40:14.906Z,60
2016-08-04T03:41:15.641Z,72
2016-08-04T03:42:15.663Z,88
2016-08-04T03:43:15.026Z,104
2016-08-04T03:44:15.117Z,120
2016-08-04T03:45:15.162Z,140
2016-08-04T03:46:16.252Z,164
2016-08-04T03:47:15.943Z,188
2016-08-04T03:48:15.298Z,212
2016-08-04T03:49:15.359Z,236
2016-08-04T03:50:16.095Z,268
2016-08-04T03:51:14.710Z,300
2016-08-04T03:52:16.218Z,336
2016-08-04T03:53:15.582Z,372
2016-08-04T03:54:14.860Z,412
2016-08-04T03:55:15.639Z,452
2016-08-04T03:56:15.704Z,496
2016-08-04T03:57:15.733Z,536
2016-08-04T03:58:16.489Z,580
2016-08-04T03:59:15.818Z,628
2016-08-04T04:00:15.184Z,680
2016-08-04T04:01:15.939Z,728
2016-08-04T04:02:16.656Z,788
2016-08-04T04:03:16.732Z,848
2016-08-04T04:04:16.758Z,920
2016-08-04T04:05:15.636Z,992
2016-08-04T04:06:15.462Z,1060
2016-08-04T04:07:14.818Z,1120
2016-08-04T04:08:16.231Z,1180
2016-08-04T04:09:16.977Z,1244
2016-08-04T04:10:17.054Z,1308
2016-08-04T04:11:17.144Z,1368
2016-08-04T04:12:15.745Z,1432
2016-08-04T04:13:17.239Z,1500
2016-08-04T04:14:16.572Z,1560
2016-08-04T04:15:17.319Z,1620
2016-08-04T04:16:16.692Z,1668
2016-08-04T04:17:16.728Z,1736
2016-08-04T04:18:16.746Z,1820
2016-08-04T04:19:17.482Z,1896
2016-08-04T04:20:17.536Z,1980
2016-08-04T04:21:17.626Z,2068
2016-08-04T04:22:16.975Z,2168
2016-08-04T04:23:17.720Z,2296
2016-08-04T04:24:17.050Z,2384
2016-08-04T04:25:17.128Z,2356
2016-08-04T04:26:17.184Z,2312
2016-08-04T04:27:17.225Z,2376
2016-08-04T04:28:17.211Z,2472
2016-08-04T04:29:17.286Z,2592
2016-08-04T04:30:16.651Z,2736
2016-08-04T04:31:18.076Z,2868
2016-08-04T04:32:16.738Z,3012
2016-08-04T04:33:17.480Z,3164
2016-08-04T04:34:18.228Z,3136
2016-08-04T04:35:17.571Z,3180
2016-08-04T04:36:18.343Z,3356
2016-08-04T04:37:17.714Z,3580
2016-08-04T04:38:17.716Z,3772
2016-08-04T04:39:17.775Z,3976
2016-08-04T04:40:17.815Z,4160
2016-08-04T04:41:18.615Z,4280
2016-08-04T04:42:18.600Z,4244
2016-08-04T04:43:18.000Z,4184
2016-08-04T04:44:18.003Z,4200
2016-08-04T04:45:18.784Z,4332
2016-08-04T04:46:18.871Z,4560
2016-08-04T04:47:18.178Z,4836
2016-08-04T04:48:18.216Z,5124
2016-08-04T04:49:18.993Z,5144
2016-08-04T04:50:18.353Z,5340
2016-08-04T04:51:18.345Z,5432
2016-08-04T04:52:19.139Z,5648
2016-08-04T04:53:19.176Z,6024
2016-08-04T04:54:18.519Z,6380
2016-08-04T04:55:18.590Z,6636
2016-08-04T04:56:19.315Z,6616
2016-08-04T04:57:18.657Z,6488
2016-08-04T04:58:18.020Z,6384
2016-08-04T04:59:18.773Z,6508
2016-08-04T05:00:18.838Z,6712
2016-08-04T05:01:18.859Z,6908
2016-08-04T05:02:19.609Z,7304
2016-08-04T05:03:18.976Z,7508
2016-08-04T05:04:19.751Z,7688
2016-08-04T05:05:18.351Z,7776
2016-08-04T05:06:19.834Z,8088
2016-08-04T05:07:18.448Z,8568
2016-08-04T05:08:19.899Z,8268
2016-08-04T05:09:19.968Z,7592
2016-08-04T05:10:19.304Z,7520
2016-08-04T05:11:19.357Z,7936
2016-08-04T05:12:20.163Z,8688
2016-08-04T05:13:20.147Z,9700
2016-08-04T05:14:20.193Z,13012
2016-08-04T05:15:18.869Z,16192
2016-08-04T05:16:20.321Z,14928
2016-08-04T05:17:19.661Z,11844
2016-08-04T05:18:20.370Z,12064
2016-08-04T05:19:20.439Z,13000
2016-08-04T05:20:19.809Z,16416
2016-08-04T05:21:19.882Z,21120
2016-08-04T05:22:19.881Z,19072
2016-08-04T05:23:20.649Z,14816
2016-08-04T05:24:20.042Z,13088
2016-08-04T05:25:20.748Z,16896
2016-08-04T05:26:20.105Z,16768
2016-08-04T05:27:20.863Z,14500
2016-08-04T05:28:20.907Z,15712
2016-08-04T05:29:20.957Z,12500
2016-08-04T05:30:20.279Z,11508
2016-08-04T05:31:21.044Z,12176
2016-08-04T05:32:21.119Z,13548
2016-08-04T05:33:21.165Z,15060
2016-08-04T05:34:21.202Z,14892
2016-08-04T05:35:20.569Z,13768
2016-08-04T05:36:21.315Z,13812
2016-08-04T05:37:21.367Z,17472
2016-08-04T05:38:21.667Z,21504
2016-08-04T05:39:21.454Z,18176
2016-08-04T05:40:21.488Z,13044
2016-08-04T05:41:21.530Z,10004
2016-08-04T05:42:20.884Z,12308
2016-08-04T05:43:20.958Z,12668
2016-08-04T05:44:21.706Z,12708
2016-08-04T05:45:21.016Z,16832
2016-08-04T05:46:21.850Z,22816
2016-08-04T05:47:21.128Z,23712
2016-08-04T05:48:20.514Z,24768
2016-08-04T05:49:21.930Z,25248
2016-08-04T05:50:20.600Z,23680
2016-08-04T05:51:22.054Z,27360
2016-08-04T05:52:21.389Z,27872
2016-08-04T05:53:21.422Z,26688
2016-08-04T05:54:22.176Z,19872
2016-08-04T05:55:21.536Z,14044
2016-08-04T05:56:22.254Z,13932
2016-08-04T05:57:22.386Z,14592
2016-08-04T05:58:21.675Z,15964
2016-08-04T05:59:21.931Z,25632
2016-08-04T06:00:22.486Z,25696
2016-08-04T06:01:21.857Z,24352
2016-08-04T06:02:21.865Z,21216
2016-08-04T06:03:22.617Z,22400
2016-08-04T06:04:22.695Z,26432
2016-08-04T06:05:22.061Z,27392
2016-08-04T06:06:21.426Z,31392
2016-08-04T06:07:22.863Z,35104
2016-08-04T06:08:22.892Z,27520
2016-08-04T06:09:22.277Z,25920
2016-08-04T06:10:22.983Z,29536
2016-08-04T06:11:22.346Z,26752
2016-08-04T06:12:21.669Z,28992
2016-08-04T06:13:23.108Z,30816
2016-08-04T06:14:23.220Z,30080
2016-08-04T06:15:23.234Z,32416
2016-08-04T06:16:23.258Z,35488
2016-08-04T06:17:23.306Z,35776
2016-08-04T06:18:23.393Z,35616
2016-08-04T06:19:23.646Z,36416
2016-08-04T06:20:23.513Z,36640
2016-08-04T06:22:22.885Z,27680
2016-08-04T06:23:22.228Z,29952
2016-08-04T06:24:23.662Z,38144
2016-08-04T06:25:23.696Z,39968
2016-08-04T06:26:23.072Z,40832
2016-08-04T06:27:23.817Z,39360
2016-08-04T06:28:23.888Z,31200
2016-08-04T06:29:23.184Z,31520
2016-08-04T06:30:24.008Z,43840
2016-08-04T06:31:24.068Z,56448
2016-08-04T06:32:23.358Z,54752
2016-08-04T06:33:24.139Z,33920
2016-08-04T06:34:24.182Z,30048
2016-08-04T06:35:23.513Z,30752
2016-08-04T06:37:24.310Z,50848
2016-08-04T06:38:23.647Z,37504
2016-08-04T06:39:24.433Z,26784
2016-08-04T06:40:24.457Z,28288
2016-08-04T06:41:23.832Z,23360
2016-08-04T06:42:23.845Z,26752
2016-08-04T06:43:23.956Z,22208
2016-08-04T06:44:24.712Z,23136
2016-08-04T06:45:23.318Z,21312
2016-08-04T06:46:24.744Z,19392
2016-08-04T06:47:24.121Z,33600
2016-08-04T06:48:24.884Z,18752
2016-08-04T06:49:24.897Z,45408
2016-08-04T06:50:24.988Z,49024
2016-08-04T06:52:24.348Z,48480
2016-08-04T06:53:24.457Z,47648
2016-08-04T06:54:25.138Z,48544
2016-08-04T06:55:25.197Z,49056
2016-08-04T06:56:25.291Z,48704
2016-08-04T06:57:25.353Z,39616
2016-08-04T06:58:25.369Z,43872
2016-08-04T06:59:25.420Z,50176
2016-08-04T07:00:25.461Z,54496
2016-08-04T07:01:24.814Z,57152
2016-08-04T07:02:25.547Z,52160
2016-08-04T07:03:23.509Z,52544
2016-08-04T07:04:24.985Z,56832
2016-08-04T07:05:25.753Z,60960
2016-08-04T07:07:25.143Z,58560
2016-08-04T07:08:25.876Z,58912
2016-08-04T07:09:25.207Z,62656
2016-08-04T07:10:25.988Z,65184
2016-08-04T07:11:25.305Z,57344
2016-08-04T07:12:25.371Z,58240
2016-08-04T07:13:26.158Z,48448
2016-08-04T07:14:26.183Z,47936
2016-08-04T07:15:26.219Z,53344
2016-08-04T07:16:25.582Z,37408
2016-08-04T07:17:26.319Z,65344
2016-08-04T07:18:25.679Z,63456
2016-08-04T07:19:25.703Z,65696
2016-08-04T07:20:26.473Z,68672
2016-08-04T07:22:25.906Z,59712
2016-08-04T07:23:26.654Z,63744
2016-08-04T07:24:26.680Z,66048
2016-08-04T07:25:26.048Z,68512
2016-08-04T07:26:26.120Z,68672
2016-08-04T07:27:26.857Z,70592
2016-08-04T07:28:26.194Z,72704
2016-08-04T07:29:26.954Z,70592
2016-08-04T07:30:26.262Z,74048
2016-08-04T07:31:27.010Z,75424
2016-08-04T07:32:27.084Z,69472
2016-08-04T07:33:25.750Z,67872
2016-08-04T07:34:27.203Z,69792
2016-08-04T07:35:26.559Z,60512
2016-08-04T07:37:26.628Z,44480
2016-08-04T07:38:26.669Z,38176
2016-08-04T07:39:26.760Z,35136
2016-08-04T07:40:27.474Z,30272
2016-08-04T07:41:26.830Z,32768
2016-08-04T07:42:27.584Z,42624
2016-08-04T07:43:27.697Z,53536
2016-08-04T07:44:27.717Z,65024
2016-08-04T07:45:27.738Z,69952
2016-08-04T07:46:27.864Z,70400
2016-08-04T07:47:27.902Z,79104
2016-08-04T07:48:27.228Z,77120
2016-08-04T07:49:27.969Z,79360
2016-08-04T07:50:28.026Z,74528
2016-08-04T07:52:28.111Z,68576
2016-08-04T07:53:27.444Z,72704
2016-08-04T07:54:28.210Z,73184
2016-08-04T07:55:28.249Z,75168
2016-08-04T07:56:27.589Z,74144
2016-08-04T07:57:28.344Z,74208
2016-08-04T07:58:28.376Z,72000
2016-08-04T07:59:28.446Z,77696
2016-08-04T08:00:28.481Z,79424
2016-08-04T08:01:28.609Z,75296
2016-08-04T08:02:28.600Z,79712
2016-08-04T08:03:27.268Z,81664
2016-08-04T08:04:28.744Z,83072
2016-08-04T08:05:28.786Z,86880
2016-08-04T08:07:28.959Z,89088
2016-08-04T08:08:28.206Z,89984
2016-08-04T08:09:28.977Z,91456
2016-08-04T08:10:28.349Z,90304
2016-08-04T08:11:29.279Z,88928
2016-08-04T08:12:29.154Z,84736
2016-08-04T08:13:27.812Z,87552
2016-08-04T08:14:28.563Z,90720
2016-08-04T08:15:29.281Z,89120
2016-08-04T08:16:28.663Z,89184
2016-08-04T08:17:29.442Z,88096
2016-08-04T08:18:29.423Z,81440
2016-08-04T08:19:29.534Z,77984
2016-08-04T08:20:29.585Z,83904
2016-08-04T08:22:29.633Z,85152
2016-08-04T08:23:29.708Z,85664
2016-08-04T08:24:29.100Z,88512
2016-08-04T08:25:29.794Z,94688
2016-08-04T08:26:29.839Z,97984
2016-08-04T08:27:29.892Z,97760
2016-08-04T08:28:29.993Z,99392
2016-08-04T08:29:29.338Z,90656
2016-08-04T08:30:28.701Z,93728
2016-08-04T08:31:30.130Z,94304
2016-08-04T08:32:30.176Z,94336
2016-08-04T08:33:29.499Z,92320
2016-08-04T08:34:30.268Z,89408
2016-08-04T08:35:29.622Z,90816
2016-08-04T08:37:29.754Z,78080
2016-08-04T08:38:29.771Z,91968
2016-08-04T08:39:30.572Z,104576
2016-08-04T08:40:29.180Z,96544
2016-08-04T08:41:29.913Z,94528
2016-08-04T08:42:30.686Z,97056
2016-08-04T08:43:30.745Z,92832
2016-08-04T08:44:30.771Z,96960
2016-08-04T08:45:30.136Z,98752
2016-08-04T08:46:31.021Z,97248
2016-08-04T08:47:30.261Z,24416
2016-08-04T08:48:30.299Z,96640
2016-08-04T08:49:31.034Z,95744
2016-08-04T08:50:31.128Z,98496
2016-08-04T08:51:31.198Z,97312
2016-08-04T08:52:31.249Z,92416
2016-08-04T08:53:29.895Z,92256
2016-08-04T08:54:31.314Z,78336
2016-08-04T08:55:30.679Z,95520
2016-08-04T08:56:30.715Z,97408
2016-08-04T08:57:31.461Z,99808
2016-08-04T08:58:31.546Z,99104
2016-08-04T08:59:31.592Z,101888
2016-08-04T09:00:31.629Z,103296
2016-08-04T09:01:31.706Z,103680
2016-08-04T09:02:31.745Z,103136
2016-08-04T09:03:31.061Z,100768
2016-08-04T09:04:31.150Z,102272
2016-08-04T09:05:31.203Z,101376
2016-08-04T09:07:32.024Z,101568
2016-08-04T09:08:31.366Z,100224
2016-08-04T09:09:32.074Z,96640
2016-08-04T09:10:32.217Z,97696
2016-08-04T09:11:31.525Z,98112
2016-08-04T09:12:31.555Z,99968
2016-08-04T09:13:31.582Z,100928
2016-08-04T09:14:32.344Z,101888
2016-08-04T09:15:32.411Z,101120
2016-08-04T09:16:32.517Z,101056
2016-08-04T09:17:32.056Z,98720
2016-08-04T09:18:32.571Z,100160
2016-08-04T09:19:31.965Z,101792
2016-08-04T09:20:32.684Z,100960
2016-08-04T09:21:32.020Z,101408
2016-08-04T09:22:32.740Z,102400
2016-08-04T09:23:32.819Z,103392
2016-08-04T09:24:31.474Z,101344
2016-08-04T09:25:31.547Z,100640
2016-08-04T09:26:32.975Z,102304
2016-08-04T09:27:33.072Z,103872
2016-08-04T09:28:33.056Z,111392
2016-08-04T09:29:32.444Z,110272
2016-08-04T09:30:33.242Z,109920
2016-08-04T09:31:33.218Z,107008
2016-08-04T09:32:33.272Z,116448
2016-08-04T09:33:32.669Z,123936
2016-08-04T09:34:33.421Z,121760
2016-08-04T09:35:33.482Z,122944
2016-08-04T09:36:32.833Z,119904
2016-08-04T09:37:33.578Z,119136
2016-08-04T09:38:32.240Z,117952
2016-08-04T09:39:33.768Z,120128
2016-08-04T09:40:33.759Z,122784
2016-08-04T09:41:33.768Z,124512
2016-08-04T09:42:33.115Z,119232
2016-08-04T09:43:33.885Z,52416
2016-08-04T09:44:33.969Z,27328
2016-08-04T09:45:34.007Z,51168
2016-08-04T09:46:34.075Z,126176
2016-08-04T09:47:34.079Z,127808
2016-08-04T09:48:34.179Z,102048
2016-08-04T09:49:32.795Z,123808
2016-08-04T09:50:33.536Z,133664
2016-08-04T09:51:33.618Z,143328
2016-08-04T09:52:33.666Z,135136
2016-08-04T09:53:34.414Z,147616
2016-08-04T09:54:33.752Z,124672
2016-08-04T09:55:33.856Z,143840
2016-08-04T09:56:34.534Z,74848
2016-08-04T09:57:34.619Z,30848
2016-08-04T09:58:34.866Z,55552
2016-08-04T09:59:34.052Z,145888
2016-08-04T10:00:34.768Z,149664
2016-08-04T10:01:34.143Z,156064
2016-08-04T10:02:34.192Z,138368
2016-08-04T10:03:34.931Z,136992
2016-08-04T10:04:33.595Z,118656
2016-08-04T10:05:35.011Z,129824
2016-08-04T10:06:33.681Z,128992
2016-08-04T10:07:35.145Z,132384
2016-08-04T10:08:34.507Z,132128
2016-08-04T10:09:35.310Z,132480
2016-08-04T10:10:34.607Z,123808
2016-08-04T10:11:34.656Z,120896
2016-08-04T10:12:34.705Z,77088
2016-08-04T10:13:35.455Z,128512
2016-08-04T10:14:34.825Z,131936
2016-08-04T10:15:34.853Z,138880
2016-08-04T10:16:35.829Z,112512
2016-08-04T10:17:34.952Z,156832
2016-08-04T10:18:35.733Z,157760
2016-08-04T10:19:35.093Z,163616
2016-08-04T10:20:35.134Z,162976
2016-08-04T10:21:35.183Z,152448
2016-08-04T10:22:34.504Z,92576
2016-08-04T10:23:36.024Z,156064
2016-08-04T10:24:36.056Z,153248
2016-08-04T10:25:36.132Z,133056
2016-08-04T10:26:36.165Z,133024
2016-08-04T10:27:36.232Z,142176
2016-08-04T10:28:36.261Z,140352
2016-08-04T10:29:36.321Z,138016
2016-08-04T10:30:35.672Z,138208
2016-08-04T10:31:36.446Z,143200
2016-08-04T10:32:35.783Z,148448
2016-08-04T10:33:35.838Z,154272
2016-08-04T10:34:35.889Z,146432
2016-08-04T10:35:36.622Z,133472
2016-08-04T10:36:36.702Z,143104
2016-08-04T10:37:36.772Z,138144
2016-08-04T10:38:36.801Z,143040
2016-08-04T10:39:34.761Z,159552
2016-08-04T10:40:36.899Z,149664
2016-08-04T10:41:36.945Z,150208
2016-08-04T10:42:36.990Z,142144
2016-08-04T10:43:37.066Z,160864
2016-08-04T10:44:37.118Z,162080
2016-08-04T10:45:37.171Z,159936
2016-08-04T10:46:36.501Z,154496
2016-08-04T10:47:37.277Z,151136
2016-08-04T10:48:37.300Z,151040
2016-08-04T10:49:37.362Z,95680
2016-08-04T10:50:36.738Z,107808
2016-08-04T10:51:37.517Z,33728
2016-08-04T10:52:37.513Z,28960
2016-08-04T10:53:37.597Z,27232
2016-08-04T10:54:37.644Z,27392
2016-08-04T10:55:37.699Z,37792
2016-08-04T10:56:37.755Z,36864
2016-08-04T10:57:37.824Z,153408
2016-08-04T10:58:37.877Z,165760
2016-08-04T10:59:37.893Z,157856
2016-08-04T11:00:37.953Z,103200
2016-08-04T11:01:37.295Z,40128
2016-08-04T11:02:37.401Z,62656
2016-08-04T11:03:38.137Z,147872
2016-08-04T11:04:38.175Z,71104
2016-08-04T11:05:38.248Z,123232
2016-08-04T11:06:37.619Z,129184
2016-08-04T11:07:36.923Z,135264
2016-08-04T11:08:38.401Z,29728
2016-08-04T11:09:38.428Z,116128
2016-08-04T11:10:37.769Z,177088
2016-08-04T11:11:38.534Z,181344
2016-08-04T11:12:37.911Z,166560
2016-08-04T11:13:37.944Z,155136
2016-08-04T11:14:38.694Z,166368
2016-08-04T11:15:38.746Z,30048
2016-08-04T11:16:38.817Z,25120
2016-08-04T11:17:38.900Z,25728
2016-08-04T11:18:38.925Z,118336
2016-08-04T11:19:38.974Z,160000
2016-08-04T11:20:39.060Z,145600
2016-08-04T11:21:39.070Z,146880
2016-08-04T11:22:39.149Z,160224
2016-08-04T11:23:38.511Z,140928
2016-08-04T11:24:38.513Z,92000
2016-08-04T11:25:39.276Z,150432
2016-08-04T11:26:39.372Z,24640
2016-08-04T11:27:39.412Z,22816
2016-08-04T11:28:38.782Z,25536
2016-08-04T11:29:38.095Z,27296
2016-08-04T11:30:39.567Z,30944
2016-08-04T11:31:38.895Z,36384
2016-08-04T11:32:39.675Z,41632
2016-08-04T11:33:39.707Z,52416
2016-08-04T11:34:39.067Z,106944
2016-08-04T11:35:39.127Z,49888
2016-08-04T11:36:39.879Z,113280
2016-08-04T11:37:39.224Z,101888
2016-08-04T11:38:40.015Z,82848
2016-08-04T11:39:40.054Z,66976
2016-08-04T11:40:40.120Z,56768
2016-08-04T11:41:40.175Z,105888
2016-08-04T11:42:39.506Z,61504
2016-08-04T11:43:39.558Z,97760
2016-08-04T11:44:39.604Z,119872
2016-08-04T11:45:40.553Z,47008
2016-08-04T11:46:39.727Z,182304
2016-08-04T11:47:40.657Z,80128
2016-08-04T11:48:39.796Z,63072
2016-08-04T11:49:40.570Z,71136
2016-08-04T11:50:40.591Z,102720
2016-08-04T11:51:40.684Z,124608
2016-08-04T11:52:40.717Z,48032
2016-08-04T11:53:40.789Z,29536
2016-08-04T11:54:40.850Z,33504
2016-08-04T11:55:40.245Z,139872
2016-08-04T11:56:40.922Z,32160
2016-08-04T11:57:41.000Z,33824
2016-08-04T11:58:41.077Z,42208
2016-08-04T11:59:41.115Z,39872
2016-08-04T12:00:40.436Z,41824
2016-08-04T12:01:41.226Z,41024
2016-08-04T12:02:41.516Z,45088
2016-08-04T12:03:41.272Z,107776
2016-08-04T12:04:40.688Z,42240
2016-08-04T12:05:41.433Z,39744
2016-08-04T12:06:41.481Z,35744
2016-08-04T12:07:41.533Z,39744
2016-08-04T12:08:41.564Z,45760
2016-08-04T12:09:41.616Z,53760
2016-08-04T12:10:41.175Z,141920
2016-08-04T12:11:41.739Z,185856
2016-08-04T12:12:41.078Z,121120
2016-08-04T12:13:41.110Z,170272
2016-08-04T12:14:41.183Z,73152
2016-08-04T12:15:41.267Z,90368
2016-08-04T12:16:41.299Z,167680
2016-08-04T12:17:42.063Z,46560
2016-08-04T12:18:42.133Z,182112
2016-08-04T12:19:42.188Z,91712
2016-08-04T12:20:41.550Z,183360
2016-08-04T12:21:42.278Z,179392
2016-08-04T12:22:41.608Z,179584
2016-08-04T12:23:42.375Z,157888
2016-08-04T12:24:41.031Z,165024
2016-08-04T12:25:41.812Z,106784
2016-08-04T12:26:41.815Z,166880
2016-08-04T12:27:42.044Z,78048
2016-08-04T12:28:42.689Z,59840
2016-08-04T12:29:42.714Z,69984
2016-08-04T12:30:42.056Z,65440
2016-08-04T12:31:45.043Z,64608
2016-08-04T12:32:42.905Z,56352
2016-08-04T12:33:42.952Z,70592
2016-08-04T12:34:42.977Z,190208
2016-08-04T12:35:43.019Z,70464
2016-08-04T12:36:43.058Z,178528
2016-08-04T12:37:42.668Z,157472
2016-08-04T12:38:43.241Z,36032
2016-08-04T12:39:42.543Z,30496
2016-08-04T12:40:43.269Z,30944
2016-08-04T12:41:43.338Z,36320
2016-08-04T12:42:43.390Z,43808
2016-08-04T12:43:43.471Z,25760
2016-08-04T12:44:43.471Z,20544
2016-08-04T12:45:43.560Z,24864
2016-08-04T12:46:44.146Z,41696
2016-08-04T12:47:43.700Z,39936
2016-08-04T12:48:43.034Z,36544
2016-08-04T12:49:43.782Z,43936
2016-08-04T12:50:43.836Z,50336
2016-08-04T12:51:43.192Z,56960
2016-08-04T12:52:43.022Z,54528
2016-08-04T12:53:43.279Z,50432
2016-08-04T12:54:44.081Z,44224
2016-08-04T12:55:44.318Z,54656
2016-08-04T12:56:44.173Z,48320
2016-08-04T12:57:44.169Z,47616
2016-08-04T12:58:44.258Z,41600
2016-08-04T12:59:43.634Z,42368
2016-08-04T13:00:44.381Z,55264
2016-08-04T13:01:44.432Z,85600
2016-08-04T13:02:44.467Z,84672
2016-08-04T13:03:43.797Z,155072
2016-08-04T13:04:44.580Z,146976
2016-08-04T13:05:43.214Z,89952
2016-08-04T13:06:44.890Z,108192
2016-08-04T13:07:43.581Z,72992
2016-08-04T13:08:44.798Z,51936
2016-08-04T13:09:44.805Z,140416
2016-08-04T13:10:44.880Z,78944
2016-08-04T13:11:44.217Z,57120
2016-08-04T13:12:45.005Z,119424
2016-08-04T13:13:45.067Z,62880
2016-08-04T13:14:45.102Z,75136
2016-08-04T13:15:43.751Z,55744
2016-08-04T13:16:44.519Z,70080
2016-08-04T13:17:45.212Z,35840
2016-08-04T13:18:45.286Z,29856
2016-08-04T13:19:43.938Z,34528
2016-08-04T13:20:44.689Z,68672
2016-08-04T13:21:44.760Z,42400
2016-08-04T13:23:44.206Z,25120
2016-08-04T13:24:44.904Z,35712
2016-08-04T13:25:45.704Z,59872
2016-08-04T13:26:45.701Z,66816
2016-08-04T13:27:45.044Z,58496
2016-08-04T13:28:45.857Z,46144
2016-08-04T13:29:44.467Z,41824
2016-08-04T13:30:44.522Z,36832
2016-08-04T13:31:45.530Z,46624